sensor_id;sensor_type;location;lat;lon;timestamp;pressure;altitude;pressure_sealevel;temperature;humidity
49723;BME280;43484;43.608;1.458;2022-09-09T00:00:52;99789.66;;;20.99;100.00
49723;BME280;43484;43.608;1.458;2022-09-09T00:03:26;99771.41;;;21.01;100.00
49723;BME280;43484;43.608;1.458;2022-09-09T00:08:34;99774.16;;;20.87;100.00
49723;BME280;43484;43.608;1.458;2022-09-09T00:11:05;99776.66;;;20.98;100.00
49723;BME280;43484;43.608;1.458;2022-09-09T00:13:37;99783.22;;;21.26;100.00
49723;BME280;43484;43.608;1.458;2022-09-09T00:16:35;99790.19;;;21.24;100.00
49723;BME280;43484;43.608;1.458;2022-09-09T00:19:14;99790.22;;;21.23;100.00
49723;BME280;43484;43.608;1.458;2022-09-09T00:21:57;99782.19;;;20.71;100.00
49723;BME280;43484;43.608;1.458;2022-09-09T00:24:35;99783.38;;;21.14;100.00
49723;BME280;43484;43.608;1.458;2022-09-09T00:27:10;99787.34;;;20.74;100.00
49723;BME280;43484;43.608;1.458;2022-09-09T00:29:47;99779.78;;;20.56;100.00
49723;BME280;43484;43.608;1.458;2022-09-09T00:32:21;99776.16;;;20.67;100.00
49723;BME280;43484;43.608;1.458;2022-09-09T00:34:52;99778.53;;;20.85;100.00
49723;BME280;43484;43.608;1.458;2022-09-09T00:37:21;99780.38;;;20.77;100.00
49723;BME280;43484;43.608;1.458;2022-09-09T00:39:51;99794.84;;;21.02;100.00
49723;BME280;43484;43.608;1.458;2022-09-09T00:42:43;99797.19;;;21.19;100.00
49723;BME280;43484;43.608;1.458;2022-09-09T00:47:56;99786.91;;;21.10;100.00
49723;BME280;43484;43.608;1.458;2022-09-09T00:50:38;99791.91;;;21.24;100.00
49723;BME280;43484;43.608;1.458;2022-09-09T00:53:24;99791.16;;;21.15;100.00
49723;BME280;43484;43.608;1.458;2022-09-09T00:58:36;99791.34;;;21.03;100.00
49723;BME280;43484;43.608;1.458;2022-09-09T01:03:37;99796.63;;;20.97;100.00
49723;BME280;43484;43.608;1.458;2022-09-09T01:06:34;99797.94;;;21.29;100.00
49723;BME280;43484;43.608;1.458;2022-09-09T01:14:40;99791.50;;;20.91;100.00
49723;BME280;43484;43.608;1.458;2022-09-09T01:17:15;99779.81;;;20.53;100.00
49723;BME280;43484;43.608;1.458;2022-09-09T01:28:19;99798.34;;;20.95;100.00
49723;BME280;43484;43.608;1.458;2022-09-09T01:30:47;99802.50;;;21.13;100.00
49723;BME280;43484;43.608;1.458;2022-09-09T01:33:16;99818.06;;;21.17;100.00
49723;BME280;43484;43.608;1.458;2022-09-09T01:36:05;99821.34;;;20.62;100.00
49723;BME280;43484;43.608;1.458;2022-09-09T01:38:35;99827.31;;;20.71;100.00
49723;BME280;43484;43.608;1.458;2022-09-09T01:41:02;99820.34;;;20.72;100.00
49723;BME280;43484;43.608;1.458;2022-09-09T01:43:29;99836.19;;;20.52;100.00
49723;BME280;43484;43.608;1.458;2022-09-09T01:45:59;99827.78;;;20.25;100.00
49723;BME280;43484;43.608;1.458;2022-09-09T01:48:28;99824.84;;;20.59;100.00
49723;BME280;43484;43.608;1.458;2022-09-09T01:50:55;99827.03;;;20.15;100.00
49723;BME280;43484;43.608;1.458;2022-09-09T01:53:23;99820.13;;;20.08;100.00
49723;BME280;43484;43.608;1.458;2022-09-09T01:56:05;99803.38;;;20.39;100.00
49723;BME280;43484;43.608;1.458;2022-09-09T02:01:20;99796.28;;;20.53;100.00
49723;BME280;43484;43.608;1.458;2022-09-09T02:03:56;99817.91;;;20.61;100.00
49723;BME280;43484;43.608;1.458;2022-09-09T02:06:38;99825.06;;;20.37;100.00
49723;BME280;43484;43.608;1.458;2022-09-09T02:09:07;99811.59;;;19.91;100.00
49723;BME280;43484;43.608;1.458;2022-09-09T02:11:36;99821.78;;;20.20;100.00
49723;BME280;43484;43.608;1.458;2022-09-09T02:14:11;99828.63;;;20.28;100.00
49723;BME280;43484;43.608;1.458;2022-09-09T02:16:44;99835.66;;;20.20;100.00
49723;BME280;43484;43.608;1.458;2022-09-09T02:19:32;99831.50;;;19.95;100.00
49723;BME280;43484;43.608;1.458;2022-09-09T02:22:01;99832.78;;;20.47;100.00
49723;BME280;43484;43.608;1.458;2022-09-09T02:24:31;99833.66;;;20.48;100.00
49723;BME280;43484;43.608;1.458;2022-09-09T02:27:01;99838.31;;;20.10;100.00
49723;BME280;43484;43.608;1.458;2022-09-09T02:29:34;99844.84;;;20.54;100.00
49723;BME280;43484;43.608;1.458;2022-09-09T02:32:05;99856.09;;;20.59;100.00
49723;BME280;43484;43.608;1.458;2022-09-09T02:34:36;99853.63;;;20.44;100.00
49723;BME280;43484;43.608;1.458;2022-09-09T02:37:08;99845.19;;;20.20;100.00
49723;BME280;43484;43.608;1.458;2022-09-09T02:39:36;99836.13;;;20.57;100.00
49723;BME280;43484;43.608;1.458;2022-09-09T02:42:04;99835.34;;;20.52;100.00
49723;BME280;43484;43.608;1.458;2022-09-09T02:44:31;99835.31;;;20.56;100.00
49723;BME280;43484;43.608;1.458;2022-09-09T02:55:29;99832.09;;;20.30;100.00
49723;BME280;43484;43.608;1.458;2022-09-09T02:58:00;99828.63;;;20.30;100.00
49723;BME280;43484;43.608;1.458;2022-09-09T03:00:28;99829.47;;;20.32;100.00
49723;BME280;43484;43.608;1.458;2022-09-09T03:02:55;99833.00;;;20.23;100.00
49723;BME280;43484;43.608;1.458;2022-09-09T03:05:22;99837.38;;;20.23;100.00
49723;BME280;43484;43.608;1.458;2022-09-09T03:07:49;99849.41;;;20.34;100.00
49723;BME280;43484;43.608;1.458;2022-09-09T03:10:17;99849.44;;;20.28;100.00
49723;BME280;43484;43.608;1.458;2022-09-09T03:12:43;99836.41;;;20.31;100.00
49723;BME280;43484;43.608;1.458;2022-09-09T03:15:10;99847.78;;;20.21;100.00
49723;BME280;43484;43.608;1.458;2022-09-09T03:17:37;99857.94;;;20.47;100.00
49723;BME280;43484;43.608;1.458;2022-09-09T03:20:04;99858.91;;;20.37;100.00
49723;BME280;43484;43.608;1.458;2022-09-09T03:22:31;99857.31;;;20.22;100.00
49723;BME280;43484;43.608;1.458;2022-09-09T03:25:00;99860.63;;;20.39;100.00
49723;BME280;43484;43.608;1.458;2022-09-09T03:27:26;99852.00;;;20.36;100.00
49723;BME280;43484;43.608;1.458;2022-09-09T03:29:56;99844.34;;;20.19;100.00
49723;BME280;43484;43.608;1.458;2022-09-09T03:32:24;99841.75;;;20.19;100.00
49723;BME280;43484;43.608;1.458;2022-09-09T03:34:52;99845.28;;;20.09;100.00
49723;BME280;43484;43.608;1.458;2022-09-09T03:37:19;99857.41;;;20.09;100.00
49723;BME280;43484;43.608;1.458;2022-09-09T03:39:46;99860.03;;;20.07;100.00
49723;BME280;43484;43.608;1.458;2022-09-09T03:42:14;99857.25;;;20.28;100.00
49723;BME280;43484;43.608;1.458;2022-09-09T03:44:40;99855.63;;;20.17;100.00
49723;BME280;43484;43.608;1.458;2022-09-09T03:47:08;99852.97;;;20.24;100.00
49723;BME280;43484;43.608;1.458;2022-09-09T03:49:35;99865.72;;;20.50;100.00
49723;BME280;43484;43.608;1.458;2022-09-09T03:52:01;99873.56;;;20.45;100.00
49723;BME280;43484;43.608;1.458;2022-09-09T03:54:28;99850.09;;;20.50;100.00
49723;BME280;43484;43.608;1.458;2022-09-09T03:56:55;99840.66;;;20.43;100.00
49723;BME280;43484;43.608;1.458;2022-09-09T03:59:21;99852.03;;;20.30;100.00
49723;BME280;43484;43.608;1.458;2022-09-09T04:01:49;99858.16;;;20.26;100.00
49723;BME280;43484;43.608;1.458;2022-09-09T04:04:15;99867.75;;;20.15;100.00
49723;BME280;43484;43.608;1.458;2022-09-09T04:06:42;99867.78;;;20.12;100.00
49723;BME280;43484;43.608;1.458;2022-09-09T04:09:08;99879.78;;;20.31;100.00
49723;BME280;43484;43.608;1.458;2022-09-09T04:12:34;56282.84;;;-139.91;100.00
49723;BME280;43484;43.608;1.458;2022-09-09T04:15:16;99879.78;;;20.31;100.00
49723;BME280;43484;43.608;1.458;2022-09-09T04:17:44;99853.91;;;20.14;100.00
49723;BME280;43484;43.608;1.458;2022-09-09T04:20:20;99853.91;;;20.14;100.00
49723;BME280;43484;43.608;1.458;2022-09-09T04:22:48;99860.91;;;20.08;100.00
49723;BME280;43484;43.608;1.458;2022-09-09T04:25:15;99850.78;;;19.70;100.00
49723;BME280;43484;43.608;1.458;2022-09-09T04:27:41;99843.69;;;19.88;100.00
49723;BME280;43484;43.608;1.458;2022-09-09T04:30:09;99846.34;;;19.84;100.00
49723;BME280;43484;43.608;1.458;2022-09-09T04:32:37;99853.19;;;19.91;100.00
49723;BME280;43484;43.608;1.458;2022-09-09T04:35:04;99855.09;;;19.71;100.00
49723;BME280;43484;43.608;1.458;2022-09-09T04:37:30;99847.41;;;19.59;100.00
49723;BME280;43484;43.608;1.458;2022-09-09T04:39:57;99852.47;;;19.77;100.00
49723;BME280;43484;43.608;1.458;2022-09-09T04:42:23;99849.09;;;19.63;100.00
49723;BME280;43484;43.608;1.458;2022-09-09T04:44:50;99841.25;;;19.66;100.00
49723;BME280;43484;43.608;1.458;2022-09-09T04:47:17;99850.72;;;19.74;100.00
49723;BME280;43484;43.608;1.458;2022-09-09T04:49:43;99849.78;;;19.86;100.00
49723;BME280;43484;43.608;1.458;2022-09-09T04:52:10;99854.09;;;19.88;100.00
49723;BME280;43484;43.608;1.458;2022-09-09T04:54:37;99861.13;;;19.79;100.00
49723;BME280;43484;43.608;1.458;2022-09-09T04:57:03;99865.47;;;19.71;100.00
49723;BME280;43484;43.608;1.458;2022-09-09T04:59:30;99861.22;;;19.59;100.00
49723;BME280;43484;43.608;1.458;2022-09-09T05:01:57;99855.22;;;19.57;100.00
49723;BME280;43484;43.608;1.458;2022-09-09T05:04:24;99862.91;;;19.68;100.00
49723;BME280;43484;43.608;1.458;2022-09-09T05:06:50;99866.44;;;19.59;100.00
49723;BME280;43484;43.608;1.458;2022-09-09T05:09:17;99863.72;;;19.76;100.00
49723;BME280;43484;43.608;1.458;2022-09-09T05:11:44;99875.00;;;19.73;100.00
49723;BME280;43484;43.608;1.458;2022-09-09T05:14:10;99887.88;;;19.91;100.00
49723;BME280;43484;43.608;1.458;2022-09-09T05:16:38;99886.50;;;19.29;100.00
49723;BME280;43484;43.608;1.458;2022-09-09T05:19:06;99888.22;;;19.39;100.00
49723;BME280;43484;43.608;1.458;2022-09-09T05:21:34;99888.16;;;19.52;100.00
49723;BME280;43484;43.608;1.458;2022-09-09T05:24:01;99884.63;;;19.62;100.00
49723;BME280;43484;43.608;1.458;2022-09-09T05:26:28;99888.00;;;19.75;100.00
49723;BME280;43484;43.608;1.458;2022-09-09T05:28:55;99896.63;;;19.80;100.00
49723;BME280;43484;43.608;1.458;2022-09-09T05:31:23;99887.13;;;19.74;100.00
49723;BME280;43484;43.608;1.458;2022-09-09T05:33:53;99879.28;;;19.82;100.00
49723;BME280;43484;43.608;1.458;2022-09-09T05:36:21;99887.19;;;19.68;100.00
49723;BME280;43484;43.608;1.458;2022-09-09T05:38:48;99860.28;;;19.71;100.00
49723;BME280;43484;43.608;1.458;2022-09-09T05:41:16;99864.66;;;19.66;100.00
49723;BME280;43484;43.608;1.458;2022-09-09T05:43:44;99855.19;;;19.60;100.00
49723;BME280;43484;43.608;1.458;2022-09-09T05:46:16;56282.84;;;-139.91;100.00
49723;BME280;43484;43.608;1.458;2022-09-09T05:48:45;56282.84;;;-139.91;100.00
49723;BME280;43484;43.608;1.458;2022-09-09T05:52:07;56282.84;;;-139.91;100.00
49723;BME280;43484;43.608;1.458;2022-09-09T05:54:36;56282.84;;;-139.91;100.00
49723;BME280;43484;43.608;1.458;2022-09-09T05:57:18;56282.84;;;-139.91;100.00
49723;BME280;43484;43.608;1.458;2022-09-09T05:59:45;56282.84;;;-139.91;100.00
49723;BME280;43484;43.608;1.458;2022-09-09T06:02:12;99746.81;;;19.68;100.00
49723;BME280;43484;43.608;1.458;2022-09-09T06:04:39;99763.41;;;19.52;100.00
49723;BME280;43484;43.608;1.458;2022-09-09T06:07:06;99741.59;;;19.70;100.00
49723;BME280;43484;43.608;1.458;2022-09-09T06:09:33;99728.53;;;19.76;100.00
49723;BME280;43484;43.608;1.458;2022-09-09T06:12:00;99729.50;;;19.67;100.00
49723;BME280;43484;43.608;1.458;2022-09-09T06:14:26;99727.63;;;19.81;100.00
49723;BME280;43484;43.608;1.458;2022-09-09T06:16:53;99747.56;;;19.81;100.00
49723;BME280;43484;43.608;1.458;2022-09-09T06:19:20;99735.41;;;19.83;100.00
49723;BME280;43484;43.608;1.458;2022-09-09T06:21:47;99757.00;;;19.91;100.00
49723;BME280;43484;43.608;1.458;2022-09-09T06:24:14;99784.72;;;19.95;100.00
49723;BME280;43484;43.608;1.458;2022-09-09T06:26:44;99839.03;;;20.30;100.00
49723;BME280;43484;43.608;1.458;2022-09-09T06:29:11;99858.09;;;20.32;100.00
49723;BME280;43484;43.608;1.458;2022-09-09T06:31:39;99823.44;;;20.28;100.00
49723;BME280;43484;43.608;1.458;2022-09-09T06:34:07;99804.47;;;20.19;100.00
49723;BME280;43484;43.608;1.458;2022-09-09T06:36:37;99807.09;;;20.13;100.00
49723;BME280;43484;43.608;1.458;2022-09-09T06:39:05;99793.22;;;20.12;100.00
49723;BME280;43484;43.608;1.458;2022-09-09T06:41:39;99793.13;;;20.24;100.00
49723;BME280;43484;43.608;1.458;2022-09-09T06:44:06;99816.47;;;20.32;100.00
49723;BME280;43484;43.608;1.458;2022-09-09T06:46:32;99818.25;;;20.25;100.00
49723;BME280;43484;43.608;1.458;2022-09-09T06:49:00;99823.25;;;20.45;100.00
49723;BME280;43484;43.608;1.458;2022-09-09T06:51:29;99838.00;;;20.46;100.00
49723;BME280;43484;43.608;1.458;2022-09-09T06:53:59;99847.53;;;20.47;100.00
49723;BME280;43484;43.608;1.458;2022-09-09T06:58:56;99845.06;;;20.33;100.00
49723;BME280;43484;43.608;1.458;2022-09-09T07:01:26;99849.34;;;20.40;100.00
49723;BME280;43484;43.608;1.458;2022-09-09T07:03:58;99842.34;;;20.45;100.00
49723;BME280;43484;43.608;1.458;2022-09-09T07:06:27;99843.94;;;20.58;100.00
49723;BME280;43484;43.608;1.458;2022-09-09T07:08:59;99837.38;;;20.23;100.00
49723;BME280;43484;43.608;1.458;2022-09-09T07:11:32;99819.16;;;20.23;100.00
49723;BME280;43484;43.608;1.458;2022-09-09T07:14:03;99812.00;;;20.41;100.00
49723;BME280;43484;43.608;1.458;2022-09-09T07:16:30;99814.66;;;20.37;100.00
49723;BME280;43484;43.608;1.458;2022-09-09T07:19:00;99832.72;;;20.53;100.00
49723;BME280;43484;43.608;1.458;2022-09-09T07:21:28;99839.63;;;20.56;100.00
49723;BME280;43484;43.608;1.458;2022-09-09T07:23:55;99838.00;;;20.47;100.00
49723;BME280;43484;43.608;1.458;2022-09-09T07:26:25;99808.59;;;20.39;100.00
49723;BME280;43484;43.608;1.458;2022-09-09T07:28:53;99837.06;;;20.53;100.00
49723;BME280;43484;43.608;1.458;2022-09-09T07:31:33;99834.72;;;20.27;100.00
49723;BME280;43484;43.608;1.458;2022-09-09T07:34:02;99840.66;;;20.40;100.00
49723;BME280;43484;43.608;1.458;2022-09-09T07:36:33;99852.78;;;20.42;100.00
49723;BME280;43484;43.608;1.458;2022-09-09T07:39:03;99846.78;;;20.36;100.00
49723;BME280;43484;43.608;1.458;2022-09-09T07:44:07;99832.91;;;20.35;100.00
49723;BME280;43484;43.608;1.458;2022-09-09T07:46:35;99840.69;;;20.37;100.00
49723;BME280;43484;43.608;1.458;2022-09-09T07:49:02;99864.06;;;20.44;100.00
49723;BME280;43484;43.608;1.458;2022-09-09T07:51:38;99865.03;;;20.31;100.00
49723;BME280;43484;43.608;1.458;2022-09-09T07:54:08;99857.22;;;20.34;100.00
49723;BME280;43484;43.608;1.458;2022-09-09T07:56:39;99861.38;;;20.50;100.00
49723;BME280;43484;43.608;1.458;2022-09-09T07:59:07;99870.97;;;20.44;100.00
49723;BME280;43484;43.608;1.458;2022-09-09T08:01:36;99880.38;;;20.58;100.00
49723;BME280;43484;43.608;1.458;2022-09-09T08:04:07;99877.88;;;20.49;100.00
49723;BME280;43484;43.608;1.458;2022-09-09T08:06:38;99872.66;;;20.51;100.00
49723;BME280;43484;43.608;1.458;2022-09-09T08:09:06;99875.31;;;20.43;100.00
49723;BME280;43484;43.608;1.458;2022-09-09T08:11:33;99879.56;;;20.53;100.00
49723;BME280;43484;43.608;1.458;2022-09-09T08:14:06;99876.97;;;20.52;100.00
49723;BME280;43484;43.608;1.458;2022-09-09T08:16:37;99883.16;;;20.42;100.00
49723;BME280;43484;43.608;1.458;2022-09-09T08:19:05;99888.25;;;20.52;100.00
49723;BME280;43484;43.608;1.458;2022-09-09T08:21:35;99885.66;;;20.52;100.00
49723;BME280;43484;43.608;1.458;2022-09-09T08:24:03;99882.16;;;20.53;100.00
49723;BME280;43484;43.608;1.458;2022-09-09T08:26:35;99891.81;;;20.42;100.00
49723;BME280;43484;43.608;1.458;2022-09-09T08:29:04;99879.69;;;20.43;100.00
49723;BME280;43484;43.608;1.458;2022-09-09T08:31:40;99892.47;;;20.64;100.00
49723;BME280;43484;43.608;1.458;2022-09-09T08:34:07;99902.81;;;20.71;100.00
49723;BME280;43484;43.608;1.458;2022-09-09T08:36:39;99897.59;;;20.70;100.00
49723;BME280;43484;43.608;1.458;2022-09-09T08:39:10;99880.38;;;20.57;100.00
49723;BME280;43484;43.608;1.458;2022-09-09T08:44:41;99886.84;;;20.12;100.00
49723;BME280;43484;43.608;1.458;2022-09-09T08:47:40;99866.38;;;19.70;100.00
49723;BME280;43484;43.608;1.458;2022-09-09T09:09:11;99668.03;;;18.33;100.00
49723;BME280;43484;43.608;1.458;2022-09-09T09:11:51;99630.28;;;17.19;100.00
49723;BME280;43484;43.608;1.458;2022-09-09T09:14:24;99608.69;;;17.34;100.00
49723;BME280;43484;43.608;1.458;2022-09-09T09:17:02;99609.53;;;17.28;100.00
49723;BME280;43484;43.608;1.458;2022-09-09T09:19:32;99608.72;;;17.01;100.00
49723;BME280;43484;43.608;1.458;2022-09-09T09:22:04;99604.38;;;17.10;100.00
49723;BME280;43484;43.608;1.458;2022-09-09T09:25:35;99604.34;;;17.45;100.00
49723;BME280;43484;43.608;1.458;2022-09-09T09:33:23;99620.72;;;17.64;100.00
49723;BME280;43484;43.608;1.458;2022-09-09T09:35:53;99635.44;;;17.57;100.00
49723;BME280;43484;43.608;1.458;2022-09-09T09:38:23;99662.19;;;17.41;100.00
49723;BME280;43484;43.608;1.458;2022-09-09T09:41:10;99665.66;;;17.50;100.00
49723;BME280;43484;43.608;1.458;2022-09-09T09:43:40;99667.38;;;17.32;100.00
49723;BME280;43484;43.608;1.458;2022-09-09T09:46:19;99676.00;;;17.17;100.00
49723;BME280;43484;43.608;1.458;2022-09-09T09:48:56;99664.81;;;17.56;100.00
49723;BME280;43484;43.608;1.458;2022-09-09T09:51:28;99678.53;;;17.91;100.00
49723;BME280;43484;43.608;1.458;2022-09-09T09:54:07;99713.97;;;17.44;100.00
49723;BME280;43484;43.608;1.458;2022-09-09T09:56:36;99712.25;;;17.44;100.00
49723;BME280;43484;43.608;1.458;2022-09-09T09:59:02;99726.94;;;17.24;100.00
49723;BME280;43484;43.608;1.458;2022-09-09T10:01:43;99715.72;;;17.34;100.00
49723;BME280;43484;43.608;1.458;2022-09-09T10:06:42;99701.94;;;17.46;100.00
49723;BME280;43484;43.608;1.458;2022-09-09T10:09:41;99689.78;;;16.97;100.00
49723;BME280;43484;43.608;1.458;2022-09-09T10:15:03;99680.31;;;16.97;100.00
49723;BME280;43484;43.608;1.458;2022-09-09T10:17:57;99671.69;;;17.09;100.00
49723;BME280;43484;43.608;1.458;2022-09-09T10:20:49;99668.22;;;16.98;100.00
49723;BME280;43484;43.608;1.458;2022-09-09T10:23:50;99666.50;;;17.34;100.00
49723;BME280;43484;43.608;1.458;2022-09-09T10:26:51;99663.94;;;17.33;100.00
49723;BME280;43484;43.608;1.458;2022-09-09T10:35:02;99662.22;;;17.45;100.00
49723;BME280;43484;43.608;1.458;2022-09-09T10:40:41;99670.84;;;17.61;100.00
49723;BME280;43484;43.608;1.458;2022-09-09T10:51:18;99733.88;;;17.48;100.00
49723;BME280;43484;43.608;1.458;2022-09-09T10:56:26;99792.53;;;17.37;100.00
49723;BME280;43484;43.608;1.458;2022-09-09T10:59:13;99804.66;;;17.61;100.00
49723;BME280;43484;43.608;1.458;2022-09-09T11:01:51;99758.88;;;18.02;100.00
49723;BME280;43484;43.608;1.458;2022-09-09T11:10:07;99782.06;;;18.69;100.00
49723;BME280;43484;43.608;1.458;2022-09-09T11:12:44;99795.00;;;18.74;100.00
49723;BME280;43484;43.608;1.458;2022-09-09T11:15:28;99770.66;;;18.98;100.00
49723;BME280;43484;43.608;1.458;2022-09-09T11:18:01;99820.84;;;19.00;100.00
49723;BME280;43484;43.608;1.458;2022-09-09T11:20:29;99790.59;;;18.91;100.00
49723;BME280;43484;43.608;1.458;2022-09-09T11:23:17;99817.38;;;19.04;100.00
49723;BME280;43484;43.608;1.458;2022-09-09T11:25:53;99860.66;;;18.94;100.00
49723;BME280;43484;43.608;1.458;2022-09-09T11:31:44;99796.34;;;19.46;100.00
49723;BME280;43484;43.608;1.458;2022-09-09T11:36:38;99887.03;;;19.88;100.00
49723;BME280;43484;43.608;1.458;2022-09-09T11:41:49;99959.97;;;19.67;100.00
49723;BME280;43484;43.608;1.458;2022-09-09T11:44:21;99953.84;;;19.77;100.00
49723;BME280;43484;43.608;1.458;2022-09-09T11:46:51;99997.91;;;20.03;100.00
49723;BME280;43484;43.608;1.458;2022-09-09T11:49:40;100016.16;;;19.92;100.00
49723;BME280;43484;43.608;1.458;2022-09-09T11:55:34;100028.94;;;20.36;100.00
49723;BME280;43484;43.608;1.458;2022-09-09T11:58:03;100055.78;;;20.36;100.00
49723;BME280;43484;43.608;1.458;2022-09-09T12:00:35;100060.31;;;19.98;100.00
49723;BME280;43484;43.608;1.458;2022-09-09T12:03:36;100039.47;;;20.10;100.00
49723;BME280;43484;43.608;1.458;2022-09-09T12:08:43;100062.00;;;20.17;100.00
49723;BME280;43484;43.608;1.458;2022-09-09T12:11:11;100092.44;;;19.86;100.00
49723;BME280;43484;43.608;1.458;2022-09-09T12:13:57;100099.41;;;19.83;100.00
49723;BME280;43484;43.608;1.458;2022-09-09T12:16:35;100091.50;;;20.01;100.00
49723;BME280;43484;43.608;1.458;2022-09-09T12:19:27;100102.00;;;19.87;100.00
49723;BME280;43484;43.608;1.458;2022-09-09T12:24:35;100087.97;;;20.22;100.00
49723;BME280;43484;43.608;1.458;2022-09-09T12:27:13;100085.25;;;20.46;100.00
49723;BME280;43484;43.608;1.458;2022-09-09T12:29:55;100073.75;;;20.75;100.00
49723;BME280;43484;43.608;1.458;2022-09-09T12:32:26;100070.94;;;21.02;100.00
49723;BME280;43484;43.608;1.458;2022-09-09T12:34:56;100088.19;;;21.15;100.00
49723;BME280;43484;43.608;1.458;2022-09-09T12:37:34;100111.78;;;20.96;100.00
49723;BME280;43484;43.608;1.458;2022-09-09T12:40:28;100099.56;;;21.05;100.00
49723;BME280;43484;43.608;1.458;2022-09-09T12:42:54;100107.34;;;21.08;100.00
49723;BME280;43484;43.608;1.458;2022-09-09T12:45:32;100137.25;;;20.58;100.00
49723;BME280;43484;43.608;1.458;2022-09-09T12:48:03;100128.56;;;20.51;100.00
49723;BME280;43484;43.608;1.458;2022-09-09T12:50:36;100136.06;;;21.02;100.00
49723;BME280;43484;43.608;1.458;2022-09-09T12:53:09;100134.41;;;20.91;100.00
49723;BME280;43484;43.608;1.458;2022-09-09T12:55:48;100129.19;;;20.89;100.00
49723;BME280;43484;43.608;1.458;2022-09-09T12:58:17;100125.66;;;20.95;100.00
49723;BME280;43484;43.608;1.458;2022-09-09T13:00:55;100125.47;;;21.27;100.00
49723;BME280;43484;43.608;1.458;2022-09-09T13:03:25;100120.13;;;21.36;100.00
49723;BME280;43484;43.608;1.458;2022-09-09T13:05:54;100123.44;;;21.53;100.00
49723;BME280;43484;43.608;1.458;2022-09-09T13:08:25;100136.63;;;21.38;100.00
49723;BME280;43484;43.608;1.458;2022-09-09T13:13:39;100124.31;;;21.55;100.00
49723;BME280;43484;43.608;1.458;2022-09-09T13:16:29;100113.66;;;21.73;100.00
49723;BME280;43484;43.608;1.458;2022-09-09T13:19:14;100127.66;;;21.66;100.00
49723;BME280;43484;43.608;1.458;2022-09-09T13:21:43;100122.41;;;21.69;100.00
49723;BME280;43484;43.608;1.458;2022-09-09T13:24:39;100113.28;;;22.07;100.00
49723;BME280;43484;43.608;1.458;2022-09-09T13:27:40;100113.75;;;22.38;100.00
49723;BME280;43484;43.608;1.458;2022-09-09T13:30:28;100114.34;;;22.58;100.00
49723;BME280;43484;43.608;1.458;2022-09-09T13:33:20;100103.84;;;21.97;100.00
49723;BME280;43484;43.608;1.458;2022-09-09T13:35:51;100105.72;;;21.86;100.00
49723;BME280;43484;43.608;1.458;2022-09-09T13:38:20;100102.72;;;22.18;100.00
49723;BME280;43484;43.608;1.458;2022-09-09T13:43:25;100099.06;;;22.29;100.00
49723;BME280;43484;43.608;1.458;2022-09-09T13:45:55;100105.22;;;22.24;100.00
49723;BME280;43484;43.608;1.458;2022-09-09T13:48:25;100101.81;;;22.22;100.00
49723;BME280;43484;43.608;1.458;2022-09-09T13:51:03;100099.91;;;22.31;100.00
49723;BME280;43484;43.608;1.458;2022-09-09T13:53:33;100093.13;;;22.20;100.00
49723;BME280;43484;43.608;1.458;2022-09-09T13:56:00;100093.56;;;21.87;100.00
49723;BME280;43484;43.608;1.458;2022-09-09T13:58:27;100101.03;;;21.38;100.00
49723;BME280;43484;43.608;1.458;2022-09-09T14:00:55;100086.59;;;21.86;100.00
49723;BME280;43484;43.608;1.458;2022-09-09T14:03:22;100084.09;;;22.40;100.00
49723;BME280;43484;43.608;1.458;2022-09-09T14:05:49;100082.16;;;22.58;100.00
49723;BME280;43484;43.608;1.458;2022-09-09T14:08:21;100083.25;;;22.40;100.00
49723;BME280;43484;43.608;1.458;2022-09-09T14:10:49;100082.84;;;22.08;100.00
49723;BME280;43484;43.608;1.458;2022-09-09T14:13:15;100074.06;;;22.15;100.00
49723;BME280;43484;43.608;1.458;2022-09-09T14:15:42;100076.63;;;22.18;100.00
49723;BME280;43484;43.608;1.458;2022-09-09T14:18:11;100071.59;;;22.03;100.00
49723;BME280;43484;43.608;1.458;2022-09-09T14:20:39;100069.50;;;22.27;100.00
49723;BME280;43484;43.608;1.458;2022-09-09T14:23:10;100077.50;;;22.17;100.00
49723;BME280;43484;43.608;1.458;2022-09-09T14:25:40;100073.16;;;22.16;100.00
49723;BME280;43484;43.608;1.458;2022-09-09T14:28:10;100065.41;;;22.10;100.00
49723;BME280;43484;43.608;1.458;2022-09-09T14:30:41;100065.41;;;22.11;100.00
49723;BME280;43484;43.608;1.458;2022-09-09T14:33:11;100069.59;;;22.23;100.00
49723;BME280;43484;43.608;1.458;2022-09-09T14:35:38;100057.97;;;22.44;100.00
49723;BME280;43484;43.608;1.458;2022-09-09T14:38:08;100054.38;;;22.49;100.00
49723;BME280;43484;43.608;1.458;2022-09-09T14:40:36;100060.00;;;22.25;100.00
49723;BME280;43484;43.608;1.458;2022-09-09T14:43:04;100059.50;;;22.58;100.00
49723;BME280;43484;43.608;1.458;2022-09-09T14:45:32;100049.38;;;22.37;100.00
49723;BME280;43484;43.608;1.458;2022-09-09T14:47:59;100044.41;;;22.19;100.00
49723;BME280;43484;43.608;1.458;2022-09-09T14:50:26;100044.16;;;22.37;100.00
49723;BME280;43484;43.608;1.458;2022-09-09T14:52:52;100045.88;;;22.38;100.00
49723;BME280;43484;43.608;1.458;2022-09-09T14:55:19;100044.63;;;22.63;100.00
49723;BME280;43484;43.608;1.458;2022-09-09T14:57:46;100031.47;;;22.69;100.00
49723;BME280;43484;43.608;1.458;2022-09-09T15:00:12;100039.31;;;22.11;100.00
49723;BME280;43484;43.608;1.458;2022-09-09T15:02:39;100036.28;;;22.40;100.00
49723;BME280;43484;43.608;1.458;2022-09-09T15:05:07;100033.38;;;22.60;100.00
49723;BME280;43484;43.608;1.458;2022-09-09T15:07:34;100030.63;;;22.69;100.00
49723;BME280;43484;43.608;1.458;2022-09-09T15:10:02;100033.19;;;22.72;100.00
49723;BME280;43484;43.608;1.458;2022-09-09T15:12:29;100021.16;;;23.12;100.00
49723;BME280;43484;43.608;1.458;2022-09-09T15:14:56;100012.38;;;23.14;100.00